createdAt,value
2023-02-02T00:01:46.407Z,100401.84
2023-02-02T00:04:17.953Z,100396.38
2023-02-02T00:06:47.321Z,100402.03
2023-02-02T00:09:19.313Z,100412.25
2023-02-02T00:11:49.381Z,100408.59
2023-02-02T00:14:17.624Z,100417.31
2023-02-02T00:16:48.072Z,100414.56
2023-02-02T00:19:18.484Z,100421.41
2023-02-02T00:21:47.288Z,100432.56
2023-02-02T00:24:19.461Z,100415.28
2023-02-02T00:26:49.730Z,100431.00
2023-02-02T00:29:20.039Z,100439.69
2023-02-02T00:31:48.444Z,100435.91
2023-02-02T00:34:17.897Z,100452.50
2023-02-02T00:36:47.317Z,100454.78
2023-02-02T00:39:19.507Z,100452.09
2023-02-02T00:41:48.464Z,100465.34
2023-02-02T00:44:34.192Z,100458.41
2023-02-02T00:47:03.143Z,100480.19
2023-02-02T00:49:31.811Z,100483.63
2023-02-02T00:52:00.579Z,100487.13
2023-02-02T00:54:31.045Z,100486.28
2023-02-02T00:56:59.731Z,100489.63
2023-02-02T00:59:28.202Z,100488.66
2023-02-02T01:01:56.903Z,100501.59
2023-02-02T01:04:28.251Z,100503.22
2023-02-02T01:06:56.670Z,100510.28
2023-02-02T01:09:29.441Z,100500.63
2023-02-02T01:11:58.121Z,100532.94
2023-02-02T01:14:26.902Z,100531.09
2023-02-02T01:17:00.084Z,100546.91
2023-02-02T01:19:31.490Z,100545.31
2023-02-02T01:22:03.409Z,100554.91
2023-02-02T01:24:33.767Z,100555.69
2023-02-02T01:27:02.479Z,100564.06
2023-02-02T01:29:30.873Z,100571.81
2023-02-02T01:32:00.018Z,100580.56
2023-02-02T01:34:28.259Z,100576.34
2023-02-02T01:36:56.786Z,100590.19
2023-02-02T01:39:25.260Z,100599.13
2023-02-02T01:41:55.096Z,100598.97
2023-02-02T01:45:03.867Z,100598.97
2023-02-02T01:47:36.355Z,100610.50
2023-02-02T01:50:07.786Z,100614.09
2023-02-02T01:52:37.047Z,100613.31
2023-02-02T01:55:09.537Z,100620.91
2023-02-02T01:57:42.150Z,100576.34
2023-02-02T02:00:14.750Z,100628.53
2023-02-02T02:02:47.778Z,100638.69
2023-02-02T02:05:20.833Z,100649.25
2023-02-02T02:07:52.857Z,100655.91
2023-02-02T02:10:21.611Z,100668.00
2023-02-02T02:12:51.631Z,100681.56
2023-02-02T02:15:38.031Z,100677.75
2023-02-02T02:18:18.418Z,100691.97
2023-02-02T02:21:34.790Z,100695.19
2023-02-02T02:25:08.251Z,100705.22
2023-02-02T02:28:04.868Z,100721.03
2023-02-02T02:31:14.512Z,100736.72
2023-02-02T02:33:50.464Z,100731.44
2023-02-02T02:36:26.900Z,100741.63
2023-02-02T02:39:06.218Z,100739.34
2023-02-02T02:41:39.949Z,100748.25
2023-02-02T02:44:11.909Z,100750.94
2023-02-02T02:46:41.051Z,100754.13
2023-02-02T02:49:12.669Z,100758.31
2023-02-02T02:51:44.663Z,100749.03
2023-02-02T02:54:21.134Z,100754.16
2023-02-02T02:57:01.147Z,100758.41
2023-02-02T02:59:44.023Z,100772.41
2023-02-02T03:02:31.488Z,100778.22
2023-02-02T03:05:11.701Z,100784.19
2023-02-02T03:07:44.608Z,100780.78
2023-02-02T03:10:16.500Z,100784.28
2023-02-02T03:12:47.061Z,100798.09
2023-02-02T03:15:16.236Z,100789.31
2023-02-02T03:17:46.394Z,100803.16
2023-02-02T03:20:16.845Z,100799.53
2023-02-02T03:22:45.098Z,100813.41
2023-02-02T03:25:13.974Z,100814.28
2023-02-02T03:27:42.628Z,100825.34
2023-02-02T03:30:14.729Z,100825.53
2023-02-02T03:32:43.558Z,100832.56
2023-02-02T03:35:12.104Z,100826.66
2023-02-02T03:37:41.929Z,100842.34
2023-02-02T03:40:14.251Z,100854.59
2023-02-02T03:42:42.970Z,100863.38
2023-02-02T03:45:12.473Z,100861.53
2023-02-02T03:47:40.770Z,100865.63
2023-02-02T03:50:10.499Z,100883.88
2023-02-02T03:52:38.837Z,100876.44
2023-02-02T03:55:09.768Z,100887.47
2023-02-02T03:57:38.203Z,100895.06
2023-02-02T04:00:07.617Z,100891.38
2023-02-02T04:02:36.220Z,100903.72
2023-02-02T04:05:04.916Z,100900.25
2023-02-02T04:07:33.551Z,100900.38
2023-02-02T04:10:01.817Z,100909.81
2023-02-02T04:12:31.869Z,100907.84
2023-02-02T04:15:00.300Z,100923.47
2023-02-02T04:17:28.653Z,100917.41
2023-02-02T04:19:59.142Z,100922.41
2023-02-02T04:22:28.377Z,100926.47
2023-02-02T04:24:57.748Z,100923.97
2023-02-02T04:27:28.613Z,100937.88
2023-02-02T04:29:58.767Z,100937.59
2023-02-02T04:32:28.054Z,100937.38
2023-02-02T04:34:59.702Z,100936.44
2023-02-02T04:37:28.239Z,100955.34
2023-02-02T04:39:58.941Z,100952.53
2023-02-02T04:42:27.976Z,100966.69
2023-02-02T04:44:57.757Z,100971.63
2023-02-02T04:47:25.996Z,100965.72
2023-02-02T04:49:54.370Z,100977.06
2023-02-02T04:52:22.696Z,100987.44
2023-02-02T04:54:50.995Z,100986.75
2023-02-02T04:57:19.617Z,100990.19
2023-02-02T04:59:47.940Z,100991.84
2023-02-02T05:02:18.060Z,101005.84
2023-02-02T05:04:47.424Z,100996.84
2023-02-02T05:07:15.750Z,101012.50
2023-02-02T05:09:44.071Z,101010.53
2023-02-02T05:12:12.472Z,101030.47
2023-02-02T05:14:40.940Z,101026.22
2023-02-02T05:17:09.236Z,101040.59
2023-02-02T05:19:39.340Z,101027.28
2023-02-02T05:22:07.629Z,101044.66
2023-02-02T05:24:36.198Z,101042.69
2023-02-02T05:27:04.510Z,101047.09
2023-02-02T05:29:32.826Z,101039.41
2023-02-02T05:32:01.594Z,101053.06
2023-02-02T05:34:30.111Z,101063.34
2023-02-02T05:37:01.967Z,101073.28
2023-02-02T05:39:30.504Z,101073.28
2023-02-02T05:41:59.245Z,101075.38
2023-02-02T05:44:30.537Z,101080.25
2023-02-02T05:47:02.307Z,101087.69
2023-02-02T05:49:33.111Z,101077.97
2023-02-02T05:52:02.863Z,101099.13
2023-02-02T05:54:31.391Z,101102.53
2023-02-02T05:57:03.143Z,101105.00
2023-02-02T05:59:31.815Z,101115.47
2023-02-02T06:02:00.436Z,101119.63
2023-02-02T06:04:29.054Z,101116.31
2023-02-02T06:06:57.579Z,101132.00
2023-02-02T06:09:27.692Z,101140.50
2023-02-02T06:11:55.847Z,101141.59
2023-02-02T06:14:24.104Z,101145.25
2023-02-02T06:16:52.781Z,101147.69
2023-02-02T06:19:21.423Z,101158.06
2023-02-02T06:21:49.957Z,101161.69
2023-02-02T06:24:18.614Z,101152.88
2023-02-02T06:26:48.306Z,101157.81
2023-02-02T06:29:19.222Z,101168.09
2023-02-02T06:31:48.000Z,101140.03
2023-02-02T06:34:18.177Z,101170.22
2023-02-02T06:36:46.388Z,101172.44
2023-02-02T06:39:15.214Z,101158.47
2023-02-02T06:41:46.770Z,101171.38
2023-02-02T06:44:16.667Z,101183.53
2023-02-02T06:46:45.365Z,101188.84
2023-02-02T06:49:14.068Z,101195.66
2023-02-02T06:51:42.409Z,101202.50
2023-02-02T06:54:10.676Z,101198.72
2023-02-02T06:56:38.986Z,101179.03
2023-02-02T06:59:07.187Z,101224.72
2023-02-02T07:01:39.545Z,101227.94
2023-02-02T07:04:07.686Z,101225.47
2023-02-02T07:06:36.392Z,101230.66
2023-02-02T07:09:04.703Z,101235.53
2023-02-02T07:11:36.710Z,101245.78
2023-02-02T07:14:13.904Z,101243.00
2023-02-02T07:16:43.542Z,101239.09
2023-02-02T07:19:11.748Z,101239.81
2023-02-02T07:21:40.087Z,101248.34
2023-02-02T07:24:09.044Z,101265.00
2023-02-02T07:26:38.328Z,101259.47
2023-02-02T07:29:07.157Z,101261.09
2023-02-02T07:31:38.272Z,101277.03
2023-02-02T07:34:08.512Z,101271.47
2023-02-02T07:36:37.184Z,101270.44
2023-02-02T07:39:07.928Z,101282.84
2023-02-02T07:41:38.032Z,101286.50
2023-02-02T07:44:07.615Z,101290.84
2023-02-02T07:46:35.798Z,101296.13
2023-02-02T07:49:06.222Z,101308.22
2023-02-02T07:51:38.031Z,101295.50
2023-02-02T07:54:08.435Z,101310.78
2023-02-02T07:56:39.738Z,101319.63
2023-02-02T07:59:08.725Z,101309.56
2023-02-02T08:01:37.507Z,101317.97
2023-02-02T08:04:06.361Z,101328.72
2023-02-02T08:06:40.141Z,101331.78
2023-02-02T08:09:10.648Z,101350.72
2023-02-02T08:11:39.678Z,101350.72
2023-02-02T08:14:08.572Z,101361.78
2023-02-02T08:16:37.098Z,101371.44
2023-02-02T08:19:06.004Z,101359.44
2023-02-02T08:21:36.464Z,101374.59
2023-02-02T08:24:31.248Z,101372.81
2023-02-02T08:27:04.463Z,101373.09
2023-02-02T08:29:32.975Z,101385.50
2023-02-02T08:32:02.170Z,101381.81
2023-02-02T08:34:37.175Z,101391.78
2023-02-02T08:37:06.816Z,101386.72
2023-02-02T08:39:35.191Z,101393.28
2023-02-02T08:42:03.923Z,101388.97
2023-02-02T08:45:00.291Z,101377.03
2023-02-02T08:47:21.521Z,101392.94
2023-02-02T08:49:50.068Z,101386.47
2023-02-02T08:52:19.812Z,101408.53
2023-02-02T08:54:48.456Z,101377.75
2023-02-02T08:57:17.313Z,101421.63
2023-02-02T08:59:45.586Z,101431.84
2023-02-02T09:02:14.328Z,101432.00
2023-02-02T09:04:45.480Z,101444.34
2023-02-02T09:07:16.719Z,101447.81
2023-02-02T09:09:46.344Z,101460.38
2023-02-02T09:12:14.808Z,101461.16
2023-02-02T09:14:43.483Z,101443.19
2023-02-02T09:17:12.145Z,101475.38
2023-02-02T09:19:40.527Z,101467.44
2023-02-02T09:22:08.864Z,101474.53
2023-02-02T09:24:37.259Z,101491.88
2023-02-02T09:27:07.124Z,101470.00
2023-02-02T09:29:38.399Z,101502.63
2023-02-02T09:32:06.830Z,101500.03
2023-02-02T09:34:37.918Z,101505.31
2023-02-02T09:37:07.424Z,101525.31
2023-02-02T09:39:36.101Z,101519.44
2023-02-02T09:42:29.439Z,101516.41
2023-02-02T09:45:03.136Z,101524.59
2023-02-02T09:47:42.930Z,101525.00
2023-02-02T09:50:22.666Z,101499.06
2023-02-02T09:52:55.573Z,101534.00
2023-02-02T09:55:31.862Z,101534.16
2023-02-02T09:58:11.905Z,101550.81
2023-02-02T10:00:46.263Z,101550.94
2023-02-02T10:03:20.665Z,101546.28
2023-02-02T10:05:58.105Z,101529.06
2023-02-02T10:08:35.408Z,101519.91
2023-02-02T10:11:22.087Z,101551.47
2023-02-02T10:13:56.903Z,101559.25
2023-02-02T10:16:26.709Z,101562.09
2023-02-02T10:19:01.165Z,101555.81
2023-02-02T10:21:37.105Z,101558.22
2023-02-02T10:24:06.042Z,101560.63
2023-02-02T10:26:39.893Z,101569.19
2023-02-02T10:29:17.086Z,101565.91
2023-02-02T10:31:51.465Z,101574.66
2023-02-02T10:34:27.191Z,101580.75
2023-02-02T10:37:14.761Z,101583.16
2023-02-02T10:39:59.148Z,101595.94
2023-02-02T10:42:36.562Z,101596.19
2023-02-02T10:45:14.804Z,101603.19
2023-02-02T10:47:43.222Z,101601.53
2023-02-02T10:50:20.478Z,101597.56
2023-02-02T10:52:53.785Z,101596.72
2023-02-02T10:55:32.626Z,101612.28
2023-02-02T10:58:07.755Z,101607.38
2023-02-02T11:00:42.881Z,101616.34
2023-02-02T11:03:12.571Z,101620.34
2023-02-02T11:05:58.817Z,101621.31
2023-02-02T11:08:33.980Z,101630.16
2023-02-02T11:11:13.316Z,101632.56
2023-02-02T11:13:46.696Z,101626.06
2023-02-02T11:16:38.803Z,101629.66
2023-02-02T11:19:24.282Z,101631.53
2023-02-02T11:21:54.658Z,101623.88
2023-02-02T11:24:25.817Z,101626.72
2023-02-02T11:26:57.113Z,101627.31
2023-02-02T11:29:30.104Z,101621.41
2023-02-02T11:32:00.308Z,101618.22
2023-02-02T11:34:30.673Z,101611.59
2023-02-02T11:37:05.665Z,101610.44
2023-02-02T11:39:33.923Z,101605.38
2023-02-02T11:42:05.507Z,101608.09
2023-02-02T11:44:35.836Z,101612.44
2023-02-02T11:47:06.565Z,101620.06
2023-02-02T11:49:44.226Z,101610.22
2023-02-02T11:52:19.538Z,101615.28
2023-02-02T11:54:50.707Z,101587.41
2023-02-02T11:57:21.015Z,101616.53
2023-02-02T11:59:50.930Z,101629.19
2023-02-02T12:02:30.577Z,101624.75
2023-02-02T12:05:15.730Z,101639.75
2023-02-02T12:07:45.487Z,101640.94
2023-02-02T12:10:19.197Z,101631.13
2023-02-02T12:13:00.573Z,101629.34
2023-02-02T12:15:45.629Z,101636.34
2023-02-02T12:18:30.093Z,101630.88
2023-02-02T12:21:03.974Z,101619.59
2023-02-02T12:23:49.038Z,101629.47
2023-02-02T12:26:23.451Z,101615.41
2023-02-02T12:29:22.561Z,101630.00
2023-02-02T12:32:27.907Z,101629.22
2023-02-02T12:35:10.720Z,101635.47
2023-02-02T12:37:52.413Z,101628.75
2023-02-02T12:40:35.649Z,101636.88
2023-02-02T12:43:14.725Z,101622.34
2023-02-02T12:45:53.222Z,101638.34
2023-02-02T12:48:40.406Z,101639.31
2023-02-02T12:51:32.680Z,101631.22
2023-02-02T12:54:33.273Z,101622.97
2023-02-02T12:57:14.381Z,101649.88
2023-02-02T13:00:11.874Z,101643.88
2023-02-02T13:02:49.220Z,101649.41
2023-02-02T13:05:33.907Z,101650.44
2023-02-02T13:08:08.967Z,101652.84
2023-02-02T13:10:40.003Z,101658.38
2023-02-02T13:13:14.048Z,101661.84
2023-02-02T13:15:45.447Z,101669.03
2023-02-02T13:18:20.274Z,101678.44
2023-02-02T13:20:53.027Z,101672.13
2023-02-02T13:23:29.271Z,101682.31
2023-02-02T13:26:03.644Z,101695.47
2023-02-02T13:28:41.550Z,101697.22
2023-02-02T13:31:18.763Z,101699.88
2023-02-02T13:33:51.315Z,101703.13
2023-02-02T13:36:28.681Z,101694.72
2023-02-02T13:39:03.160Z,101704.06
2023-02-02T13:41:32.254Z,101704.16
2023-02-02T13:44:06.035Z,101696.81
2023-02-02T13:46:40.845Z,101696.63
2023-02-02T13:49:13.569Z,101702.94
2023-02-02T13:51:55.129Z,101699.84
2023-02-02T13:54:57.325Z,101726.94
2023-02-02T14:00:38.760Z,101716.13
2023-02-02T14:03:23.278Z,101721.56
2023-02-02T14:06:06.175Z,101724.97
2023-02-02T14:08:35.267Z,101721.56
2023-02-02T14:11:07.476Z,101723.00
2023-02-02T14:14:02.450Z,101730.56
2023-02-02T14:16:52.834Z,101723.75
2023-02-02T14:19:52.612Z,101736.94
2023-02-02T14:22:40.531Z,101735.28
2023-02-02T14:25:45.599Z,101739.22
2023-02-02T14:28:46.098Z,101741.28
2023-02-02T14:31:42.464Z,101744.72
2023-02-02T14:34:31.527Z,101757.25
2023-02-02T14:37:21.386Z,101759.66
2023-02-02T14:39:59.674Z,101762.03
2023-02-02T14:43:02.937Z,101766.13
2023-02-02T14:45:34.640Z,101776.84
2023-02-02T14:48:04.362Z,101778.41
2023-02-02T14:50:50.865Z,101776.72
2023-02-02T14:53:26.976Z,101776.84
2023-02-02T14:56:02.577Z,101777.63
2023-02-02T14:58:37.458Z,101780.16
2023-02-02T15:01:14.798Z,101780.16
2023-02-02T15:03:53.105Z,101788.94
2023-02-02T15:06:34.550Z,101777.81
2023-02-02T15:09:42.086Z,101789.97
2023-02-02T15:12:23.839Z,101768.75
2023-02-02T15:14:58.064Z,101789.47
2023-02-02T15:17:48.610Z,101793.09
2023-02-02T15:20:24.058Z,101789.41
2023-02-02T15:22:58.035Z,101809.03
2023-02-02T15:25:32.288Z,101816.66
2023-02-02T15:28:09.173Z,101810.69
2023-02-02T15:30:40.138Z,101820.34
2023-02-02T15:33:29.269Z,101820.22
2023-02-02T15:36:00.975Z,101826.06
2023-02-02T15:38:35.875Z,101815.53
2023-02-02T15:41:13.661Z,101818.47
2023-02-02T15:43:42.225Z,101826.38
2023-02-02T15:46:14.853Z,101842.56
2023-02-02T15:48:44.857Z,101843.44
2023-02-02T15:51:20.360Z,101837.50
2023-02-02T15:53:51.949Z,101825.06
2023-02-02T15:56:31.966Z,101825.06
2023-02-02T15:59:02.208Z,101832.03
2023-02-02T16:01:34.121Z,101833.97
2023-02-02T16:04:16.482Z,101831.94
2023-02-02T16:06:45.829Z,101832.03
2023-02-02T16:09:25.264Z,101837.50
2023-02-02T16:11:54.055Z,101845.38
2023-02-02T16:14:22.783Z,101847.84
2023-02-02T16:16:51.606Z,101837.88
2023-02-02T16:19:23.180Z,101826.34
2023-02-02T16:21:56.500Z,101840.25
2023-02-02T16:24:30.294Z,101828.63
2023-02-02T16:27:01.882Z,101822.66
2023-02-02T16:29:30.883Z,101820.03
2023-02-02T16:31:59.798Z,101818.56
2023-02-02T16:34:48.991Z,101815.91
2023-02-02T16:37:20.279Z,101814.13
2023-02-02T16:39:48.554Z,101821.22
2023-02-02T16:42:26.602Z,101824.69
2023-02-02T16:44:55.943Z,101803.88
2023-02-02T16:47:36.262Z,101835.72
2023-02-02T16:50:36.110Z,101831.50
2023-02-02T16:53:06.819Z,101825.44
2023-02-02T16:55:50.497Z,101827.09
2023-02-02T16:58:22.919Z,101838.66
2023-02-02T17:01:13.596Z,101833.91
2023-02-02T17:03:51.296Z,101798.59
2023-02-02T17:06:38.390Z,101822.66
2023-02-02T17:09:27.946Z,101820.06
2023-02-02T17:12:01.911Z,101819.59
2023-02-02T17:14:35.164Z,101810.72
2023-02-02T17:17:06.604Z,101782.47
2023-02-02T17:19:35.585Z,101810.63
2023-02-02T17:22:09.106Z,101809.03
2023-02-02T17:24:37.402Z,101801.56
2023-02-02T17:27:05.914Z,101807.03
2023-02-02T17:29:35.421Z,101806.03
2023-02-02T17:32:03.976Z,101812.16
2023-02-02T17:34:32.183Z,101808.34
2023-02-02T17:37:00.489Z,101806.03
2023-02-02T17:39:30.254Z,101793.59
2023-02-02T17:41:58.854Z,101786.88
2023-02-02T17:44:28.175Z,101791.69
2023-02-02T17:46:56.521Z,101787.66
2023-02-02T17:49:25.471Z,101789.03
2023-02-02T17:51:54.092Z,101786.63
2023-02-02T17:54:22.340Z,101789.53
2023-02-02T17:56:52.031Z,101803.72
2023-02-02T17:59:20.363Z,101797.28
2023-02-02T18:01:49.186Z,101796.91
2023-02-02T18:04:17.557Z,101794.63
2023-02-02T18:06:46.353Z,101794.75
2023-02-02T18:09:14.990Z,101792.59
2023-02-02T18:11:45.619Z,101796.44
2023-02-02T18:14:17.119Z,101799.19
2023-02-02T18:16:48.382Z,101802.63
2023-02-02T18:19:18.724Z,101793.03
2023-02-02T18:21:47.501Z,101792.31
2023-02-02T18:24:16.452Z,101790.81
2023-02-02T18:26:45.134Z,101796.13
2023-02-02T18:29:13.714Z,101788.25
2023-02-02T18:31:43.561Z,101786.09
2023-02-02T18:34:14.004Z,101770.38
2023-02-02T18:36:42.337Z,101780.22
2023-02-02T18:39:10.728Z,101784.44
2023-02-02T18:41:39.045Z,101783.91
2023-02-02T18:44:08.171Z,101788.25
2023-02-02T18:46:36.411Z,101780.41
2023-02-02T18:49:06.486Z,101783.44
2023-02-02T18:51:34.756Z,101773.19
2023-02-02T18:54:02.927Z,101764.28
2023-02-02T18:56:31.977Z,101773.03
2023-02-02T18:59:00.659Z,101769.75
2023-02-02T19:01:30.218Z,101765.19
2023-02-02T19:03:58.944Z,101775.09
2023-02-02T19:06:46.857Z,101768.09
2023-02-02T19:09:17.692Z,101772.38
2023-02-02T19:11:49.048Z,101748.59
2023-02-02T19:14:19.532Z,101752.13
2023-02-02T19:16:49.579Z,101738.44
2023-02-02T19:19:30.397Z,101739.72
2023-02-02T19:22:05.254Z,101716.88
2023-02-02T19:24:39.231Z,101730.19
2023-02-02T19:27:18.444Z,101736.97
2023-02-02T19:29:51.354Z,101732.47
2023-02-02T19:32:21.997Z,101727.25
2023-02-02T19:34:52.057Z,101721.25
2023-02-02T19:37:25.649Z,101717.13
2023-02-02T19:39:57.333Z,101713.59
2023-02-02T19:42:27.603Z,101698.34
2023-02-02T19:44:57.863Z,101700.38
2023-02-02T19:47:32.739Z,101701.13
2023-02-02T19:50:13.455Z,101697.47
2023-02-02T19:52:44.325Z,101698.34
2023-02-02T19:55:23.809Z,101691.63
2023-02-02T19:57:53.606Z,101689.38
2023-02-02T20:00:24.666Z,101692.13
2023-02-02T20:03:01.247Z,101695.56
2023-02-02T20:05:35.265Z,101683.72
2023-02-02T20:08:14.262Z,101686.28
2023-02-02T20:10:46.712Z,101687.66
2023-02-02T20:13:20.184Z,101680.56
2023-02-02T20:15:50.292Z,101689.19
2023-02-02T20:18:22.823Z,101693.56
2023-02-02T20:20:55.459Z,101666.38
2023-02-02T20:23:46.924Z,101686.16
2023-02-02T20:26:26.011Z,101678.31
2023-02-02T20:28:56.883Z,101680.44
2023-02-02T20:31:27.757Z,101666.13
2023-02-02T20:33:58.212Z,101664.34
2023-02-02T20:36:38.297Z,101661.16
2023-02-02T20:39:30.874Z,101656.13
2023-02-02T20:41:59.484Z,101656.00
2023-02-02T20:44:29.378Z,101655.63
2023-02-02T20:47:00.453Z,101669.22
2023-02-02T20:49:31.897Z,101657.16
2023-02-02T20:52:03.116Z,101660.03
2023-02-02T20:54:34.175Z,101655.63
2023-02-02T20:57:02.885Z,101657.44
2023-02-02T20:59:31.375Z,101660.72
2023-02-02T21:02:00.224Z,101665.91
2023-02-02T21:04:29.001Z,101656.03
2023-02-02T21:07:01.139Z,101644.16
2023-02-02T21:09:29.574Z,101648.66
2023-02-02T21:12:02.072Z,101648.41
2023-02-02T21:14:30.554Z,101647.72
2023-02-02T21:17:12.892Z,101651.97
2023-02-02T21:19:42.575Z,101644.47
2023-02-02T21:22:10.965Z,101633.69
2023-02-02T21:24:40.240Z,101642.69
2023-02-02T21:27:13.710Z,101635.84
2023-02-02T21:29:41.949Z,101635.84
2023-02-02T21:32:10.731Z,101636.91
2023-02-02T21:34:39.486Z,101638.56
2023-02-02T21:37:15.093Z,101632.66
2023-02-02T21:39:48.813Z,101620.53
2023-02-02T21:42:20.658Z,101621.47
2023-02-02T21:44:54.098Z,101607.94
2023-02-02T21:47:31.030Z,101604.88
2023-02-02T21:50:04.879Z,101594.53
2023-02-02T21:52:35.035Z,101579.09
2023-02-02T21:55:29.099Z,101567.28
2023-02-02T21:58:00.229Z,101567.75
2023-02-02T22:00:31.141Z,101568.75
2023-02-02T22:03:00.434Z,101554.25
2023-02-02T22:05:34.646Z,101543.09
2023-02-02T22:08:09.296Z,101519.50
2023-02-02T22:10:40.580Z,101503.56
2023-02-02T22:13:16.971Z,101524.59
2023-02-02T22:15:47.659Z,101517.63
2023-02-02T22:18:19.595Z,101521.81
2023-02-02T22:20:50.863Z,101503.28
2023-02-02T22:23:20.839Z,101499.81
2023-02-02T22:25:50.913Z,101489.72
2023-02-02T22:28:23.217Z,101484.09
2023-02-02T22:30:53.030Z,101480.47
2023-02-02T22:33:21.870Z,101482.97
2023-02-02T22:35:53.783Z,101470.81
2023-02-02T22:38:24.425Z,101472.69
2023-02-02T22:40:53.926Z,101464.88
2023-02-02T22:43:24.173Z,101458.50
2023-02-02T22:45:52.396Z,101456.88
2023-02-02T22:48:20.828Z,101456.44
2023-02-02T22:50:49.056Z,101443.44
2023-02-02T22:53:17.382Z,101437.94
2023-02-02T22:55:45.893Z,101422.44
2023-02-02T22:58:14.519Z,101415.34
2023-02-02T23:00:44.483Z,101410.38
2023-02-02T23:03:13.065Z,101397.22
2023-02-02T23:05:41.805Z,101390.88
2023-02-02T23:08:10.218Z,101377.88
2023-02-02T23:10:38.561Z,101378.84
2023-02-02T23:13:07.553Z,101372.94
2023-02-02T23:15:36.099Z,101360.09
2023-02-02T23:18:06.204Z,101360.00
2023-02-02T23:20:35.001Z,101344.59
2023-02-02T23:23:03.932Z,101337.63
2023-02-02T23:25:32.306Z,101337.81
2023-02-02T23:28:00.570Z,101324.09
2023-02-02T23:30:31.950Z,101324.09
2023-02-02T23:33:00.090Z,101318.53
2023-02-02T23:35:30.072Z,101306.25
2023-02-02T23:37:58.238Z,101299.22
2023-02-02T23:40:27.127Z,101298.66
2023-02-02T23:42:55.816Z,101290.81
2023-02-02T23:45:24.265Z,101284.13
2023-02-02T23:47:52.481Z,101282.66
2023-02-02T23:50:21.124Z,101269.41
2023-02-02T23:52:50.743Z,101273.63
2023-02-02T23:55:19.288Z,101278.75
2023-02-02T23:57:47.988Z,101283.84
